createdAt,value
2022-12-06T00:01:32.194Z,19.10
2022-12-06T00:04:02.411Z,27.10
2022-12-06T00:06:32.315Z,23.70
2022-12-06T00:09:01.150Z,25.10
2022-12-06T00:11:31.181Z,19.20
2022-12-06T00:14:01.126Z,23.30
2022-12-06T00:16:30.270Z,23.10
2022-12-06T00:18:59.208Z,18.80
2022-12-06T00:21:29.634Z,18.70
2022-12-06T00:24:02.168Z,24.90
2022-12-06T00:26:30.990Z,23.60
2022-12-06T00:29:00.563Z,20.10
2022-12-06T00:31:30.256Z,22.90
2022-12-06T00:33:59.144Z,20.10
2022-12-06T00:36:29.065Z,22.50
2022-12-06T00:39:01.665Z,23.60
2022-12-06T00:41:30.550Z,22.10
2022-12-06T00:43:59.275Z,21.80
2022-12-06T00:46:29.286Z,22.10
2022-12-06T00:48:59.073Z,20.10
2022-12-06T00:51:28.962Z,20.10
2022-12-06T00:53:58.903Z,22.00
2022-12-06T00:56:27.909Z,18.90
2022-12-06T00:58:56.751Z,23.90
2022-12-06T01:01:27.129Z,20.80
2022-12-06T01:03:57.831Z,23.80
2022-12-06T01:06:28.523Z,20.20
2022-12-06T01:08:58.728Z,23.40
2022-12-06T01:11:28.134Z,23.90
2022-12-06T01:13:56.993Z,20.10
2022-12-06T01:16:27.564Z,19.10
2022-12-06T01:19:02.740Z,26.20
2022-12-06T01:21:31.706Z,19.30
2022-12-06T01:24:00.448Z,19.30
2022-12-06T01:26:30.774Z,20.80
2022-12-06T01:29:00.427Z,19.20
2022-12-06T01:31:35.415Z,20.90
2022-12-06T01:34:14.030Z,20.80
2022-12-06T01:36:43.078Z,19.40
2022-12-06T01:39:12.715Z,26.90
2022-12-06T01:41:41.990Z,23.50
2022-12-06T01:44:29.420Z,21.70
2022-12-06T01:46:58.128Z,21.70
2022-12-06T01:49:32.243Z,19.00
2022-12-06T01:52:03.079Z,27.00
2022-12-06T01:54:32.393Z,25.40
2022-12-06T01:57:02.507Z,25.00
2022-12-06T01:59:31.377Z,23.10
2022-12-06T02:02:00.170Z,27.10
2022-12-06T02:04:30.130Z,24.40
2022-12-06T02:06:59.433Z,23.00
2022-12-06T02:09:29.982Z,22.70
2022-12-06T02:11:58.704Z,23.10
2022-12-06T02:14:30.105Z,22.90
2022-12-06T02:17:17.523Z,22.60
2022-12-06T02:19:52.040Z,24.80
2022-12-06T02:22:27.014Z,26.70
2022-12-06T02:25:07.584Z,22.10
2022-12-06T02:27:45.448Z,24.20
2022-12-06T02:30:34.678Z,25.30
2022-12-06T02:33:08.857Z,20.50
2022-12-06T02:35:43.375Z,24.60
2022-12-06T02:38:17.764Z,22.10
2022-12-06T02:40:54.219Z,24.00
2022-12-06T02:43:25.905Z,21.80
2022-12-06T02:45:56.892Z,21.30
2022-12-06T02:48:26.284Z,20.80
2022-12-06T02:51:07.552Z,23.20
2022-12-06T02:53:37.896Z,27.00
2022-12-06T02:56:07.494Z,22.20
2022-12-06T02:58:37.211Z,17.70
2022-12-06T03:01:16.629Z,22.30
2022-12-06T03:03:51.660Z,22.50
2022-12-06T03:06:20.340Z,21.50
2022-12-06T03:08:57.862Z,22.70
2022-12-06T03:11:28.632Z,20.30
2022-12-06T03:14:10.972Z,23.00
2022-12-06T03:17:08.413Z,21.90
2022-12-06T03:19:38.750Z,19.90
2022-12-06T03:22:12.902Z,24.70
2022-12-06T03:24:43.095Z,23.00
2022-12-06T03:27:13.933Z,19.10
2022-12-06T03:29:45.432Z,21.30
2022-12-06T03:32:15.760Z,20.80
2022-12-06T03:34:47.370Z,21.90
2022-12-06T03:37:17.998Z,19.70
2022-12-06T03:39:46.643Z,20.30
2022-12-06T03:42:16.128Z,22.10
2022-12-06T03:44:45.317Z,23.20
2022-12-06T03:47:43.128Z,18.30
2022-12-06T03:50:16.456Z,20.20
2022-12-06T03:52:45.269Z,16.50
2022-12-06T03:55:13.996Z,19.50
2022-12-06T03:57:42.941Z,19.20
2022-12-06T04:00:14.143Z,18.90
2022-12-06T04:02:42.915Z,19.40
2022-12-06T04:05:11.980Z,18.20
2022-12-06T04:07:40.826Z,19.80
2022-12-06T04:10:09.671Z,20.60
2022-12-06T04:12:57.295Z,15.90
2022-12-06T04:15:26.825Z,20.20
2022-12-06T04:18:14.504Z,18.00
2022-12-06T04:21:06.804Z,19.40
2022-12-06T04:23:37.088Z,16.20
2022-12-06T04:26:06.896Z,19.70
2022-12-06T04:28:54.274Z,17.10
2022-12-06T04:31:41.453Z,19.50
2022-12-06T04:34:28.813Z,15.80
2022-12-06T04:37:15.912Z,15.60
2022-12-06T04:39:44.718Z,18.60
2022-12-06T04:42:32.161Z,18.50
2022-12-06T04:45:01.005Z,15.70
2022-12-06T04:47:29.700Z,16.90
2022-12-06T04:49:58.768Z,17.90
2022-12-06T04:52:32.644Z,15.60
2022-12-06T04:55:04.846Z,16.00
2022-12-06T04:57:33.641Z,14.20
2022-12-06T05:00:02.790Z,18.90
2022-12-06T05:02:31.751Z,16.00
2022-12-06T05:05:00.596Z,17.70
2022-12-06T05:07:29.379Z,18.30
2022-12-06T05:09:58.544Z,16.20
2022-12-06T05:12:27.512Z,16.60
2022-12-06T05:14:56.357Z,16.10
2022-12-06T05:17:25.028Z,14.80
2022-12-06T05:19:53.714Z,14.30
2022-12-06T05:22:22.401Z,15.30
2022-12-06T05:24:51.797Z,17.20
2022-12-06T05:27:20.749Z,12.70
2022-12-06T05:29:49.501Z,14.80
2022-12-06T05:32:18.220Z,13.60
2022-12-06T05:34:46.896Z,15.20
2022-12-06T05:37:15.591Z,15.80
2022-12-06T05:39:44.303Z,12.50
2022-12-06T05:42:20.407Z,14.10
2022-12-06T05:44:51.041Z,16.50
2022-12-06T05:47:19.861Z,14.80
2022-12-06T05:49:48.612Z,15.10
2022-12-06T05:52:17.297Z,18.50
2022-12-06T05:54:45.977Z,16.40
2022-12-06T05:57:14.737Z,16.70
2022-12-06T05:59:43.424Z,14.40
2022-12-06T06:02:12.300Z,15.40
2022-12-06T06:04:41.342Z,15.20
2022-12-06T06:07:10.069Z,12.20
2022-12-06T06:09:38.816Z,13.70
2022-12-06T06:12:12.243Z,14.00
2022-12-06T06:14:41.448Z,18.40
2022-12-06T06:17:10.324Z,16.90
2022-12-06T06:19:39.127Z,16.20
2022-12-06T06:22:07.829Z,15.20
2022-12-06T06:24:40.516Z,15.60
2022-12-06T06:27:09.373Z,16.10
2022-12-06T06:29:43.616Z,20.00
2022-12-06T06:32:14.112Z,20.20
2022-12-06T06:34:42.840Z,18.60
2022-12-06T06:37:11.723Z,18.60
2022-12-06T06:39:40.476Z,21.00
2022-12-06T06:42:09.176Z,20.20
2022-12-06T06:44:37.971Z,20.20
2022-12-06T06:47:06.697Z,25.00
2022-12-06T06:49:35.389Z,18.60
2022-12-06T06:52:04.206Z,21.10
2022-12-06T06:54:32.925Z,21.50
2022-12-06T06:57:02.964Z,23.10
2022-12-06T06:59:31.692Z,19.40
2022-12-06T07:02:00.502Z,18.70
2022-12-06T07:04:30.119Z,20.50
2022-12-06T07:06:58.815Z,21.30
2022-12-06T07:09:27.484Z,21.90
2022-12-06T07:11:56.279Z,21.60
2022-12-06T07:14:25.018Z,18.50
2022-12-06T07:16:53.800Z,20.10
2022-12-06T07:19:22.804Z,22.10
2022-12-06T07:21:52.065Z,25.10
2022-12-06T07:24:20.824Z,23.20
2022-12-06T07:26:49.580Z,20.10
2022-12-06T07:29:18.290Z,24.40
2022-12-06T07:31:46.980Z,21.40
2022-12-06T07:34:16.520Z,23.40
2022-12-06T07:36:45.191Z,21.00
2022-12-06T07:39:15.157Z,22.20
2022-12-06T07:42:02.563Z,25.90
2022-12-06T07:44:49.767Z,22.00
2022-12-06T07:47:18.449Z,27.50
2022-12-06T07:49:47.260Z,21.90
2022-12-06T07:52:15.947Z,24.50
2022-12-06T07:54:44.742Z,27.20
2022-12-06T07:57:13.545Z,21.30
2022-12-06T07:59:42.261Z,24.40
2022-12-06T08:02:17.097Z,29.40
2022-12-06T08:04:45.913Z,24.70
2022-12-06T08:07:14.976Z,21.10
2022-12-06T08:09:43.757Z,22.80
2022-12-06T08:12:12.501Z,23.20
2022-12-06T08:14:41.236Z,21.70
2022-12-06T08:17:10.019Z,20.30
2022-12-06T08:19:38.825Z,22.40
2022-12-06T08:22:07.821Z,20.20
2022-12-06T08:24:36.502Z,18.70
2022-12-06T08:27:05.201Z,20.30
2022-12-06T08:29:34.451Z,19.40
2022-12-06T08:32:03.522Z,16.70
2022-12-06T08:34:32.225Z,22.10
2022-12-06T08:37:03.611Z,20.10
2022-12-06T08:39:32.596Z,17.80
2022-12-06T08:42:03.621Z,23.10
2022-12-06T08:44:32.829Z,18.50
2022-12-06T08:47:02.399Z,19.70
2022-12-06T08:49:31.423Z,20.60
2022-12-06T08:52:00.626Z,21.40
2022-12-06T08:54:29.538Z,21.90
2022-12-06T08:56:58.716Z,22.70
2022-12-06T08:59:27.498Z,23.20
2022-12-06T09:01:56.250Z,22.30
2022-12-06T09:04:25.553Z,23.60
2022-12-06T09:06:54.437Z,22.20
2022-12-06T09:09:23.135Z,22.30
2022-12-06T09:11:51.846Z,21.30
2022-12-06T09:14:22.206Z,22.20
2022-12-06T09:16:52.382Z,22.00
2022-12-06T09:19:21.181Z,20.20
2022-12-06T09:21:50.074Z,21.70
2022-12-06T09:24:19.175Z,24.10
2022-12-06T09:26:48.083Z,22.40
2022-12-06T09:29:17.727Z,20.70
2022-12-06T09:31:46.630Z,20.30
2022-12-06T09:34:16.952Z,24.70
2022-12-06T09:37:04.084Z,22.40
2022-12-06T09:39:48.786Z,17.80
2022-12-06T09:42:20.326Z,19.10
2022-12-06T09:44:58.156Z,17.20
2022-12-06T09:47:29.908Z,22.40
2022-12-06T09:50:17.104Z,21.50
2022-12-06T09:52:58.049Z,19.50
2022-12-06T09:55:26.764Z,17.20
2022-12-06T09:57:55.457Z,20.30
2022-12-06T10:00:24.680Z,18.50
2022-12-06T10:03:14.622Z,18.60
2022-12-06T10:05:52.205Z,20.40
2022-12-06T10:08:34.541Z,18.20
2022-12-06T10:11:09.081Z,22.10
2022-12-06T10:14:06.414Z,19.70
2022-12-06T10:16:35.102Z,21.10
2022-12-06T10:19:25.117Z,24.30
2022-12-06T10:22:01.149Z,23.00
2022-12-06T10:24:48.733Z,21.20
2022-12-06T10:27:31.765Z,21.80
2022-12-06T10:30:11.710Z,17.50
2022-12-06T10:32:53.883Z,21.40
2022-12-06T10:35:28.501Z,22.90
2022-12-06T10:38:13.206Z,20.60
2022-12-06T10:40:46.210Z,21.60
2022-12-06T10:43:19.622Z,21.20
2022-12-06T10:46:09.668Z,20.10
2022-12-06T10:48:41.661Z,21.70
2022-12-06T10:51:16.923Z,24.50
2022-12-06T10:53:54.541Z,25.40
2022-12-06T10:56:26.011Z,25.10
2022-12-06T10:59:00.476Z,24.50
2022-12-06T11:01:32.560Z,27.00
2022-12-06T11:04:04.109Z,30.30
2022-12-06T11:06:38.830Z,32.60
2022-12-06T11:09:23.492Z,29.80
2022-12-06T11:11:52.317Z,35.50
2022-12-06T11:14:24.038Z,29.40
2022-12-06T11:16:59.575Z,27.70
2022-12-06T11:19:44.226Z,26.40
2022-12-06T11:22:15.955Z,24.20
2022-12-06T11:24:49.293Z,24.80
2022-12-06T11:27:24.055Z,29.10
2022-12-06T11:29:53.396Z,26.70
2022-12-06T11:32:22.168Z,28.60
2022-12-06T11:34:55.650Z,26.90
2022-12-06T11:37:26.240Z,24.90
2022-12-06T11:40:04.531Z,26.70
2022-12-06T11:42:34.000Z,23.70
2022-12-06T11:45:18.326Z,29.40
2022-12-06T11:47:48.043Z,26.00
2022-12-06T11:50:18.493Z,27.70
2022-12-06T11:52:57.295Z,32.60
2022-12-06T11:55:27.995Z,28.00
2022-12-06T11:58:01.211Z,30.10
2022-12-06T12:00:31.318Z,29.40
2022-12-06T12:03:00.326Z,31.70
2022-12-06T12:05:38.837Z,29.30
2022-12-06T12:08:17.095Z,27.40
2022-12-06T12:10:46.835Z,32.60
2022-12-06T12:13:34.406Z,32.10
2022-12-06T12:16:26.333Z,29.00
2022-12-06T12:18:55.127Z,28.00
2022-12-06T12:21:33.122Z,28.90
2022-12-06T12:24:02.147Z,29.80
2022-12-06T12:26:38.628Z,27.80
2022-12-06T12:29:14.768Z,28.10
2022-12-06T12:31:51.875Z,32.10
2022-12-06T12:34:27.901Z,28.30
2022-12-06T12:37:02.048Z,26.50
2022-12-06T12:39:36.658Z,28.80
2022-12-06T12:42:25.198Z,27.20
2022-12-06T12:44:55.857Z,27.50
2022-12-06T12:47:24.764Z,27.30
2022-12-06T12:50:01.201Z,32.10
2022-12-06T12:52:32.117Z,28.60
2022-12-06T12:55:27.528Z,32.00
2022-12-06T12:57:58.067Z,29.20
2022-12-06T13:00:29.721Z,32.60
2022-12-06T13:03:00.155Z,31.10
2022-12-06T13:05:35.484Z,30.20
2022-12-06T13:08:12.602Z,37.10
2022-12-06T13:10:43.536Z,32.70
2022-12-06T13:13:17.220Z,30.60
2022-12-06T13:15:50.252Z,37.60
2022-12-06T13:18:24.290Z,50.00
2022-12-06T13:20:54.849Z,46.80
2022-12-06T13:23:25.813Z,56.90
2022-12-06T13:26:13.131Z,53.70
2022-12-06T13:28:44.966Z,49.70
2022-12-06T13:31:17.049Z,35.90
2022-12-06T13:33:49.359Z,34.30
2022-12-06T13:36:19.016Z,36.90
2022-12-06T13:38:47.910Z,34.90
2022-12-06T13:41:55.049Z,32.70
2022-12-06T13:44:50.531Z,28.80
2022-12-06T13:47:28.420Z,33.70
2022-12-06T13:49:57.207Z,32.30
2022-12-06T13:52:45.330Z,30.90
2022-12-06T13:55:26.329Z,27.30
2022-12-06T13:57:55.112Z,27.60
2022-12-06T14:00:30.053Z,30.70
2022-12-06T14:02:58.939Z,29.30
2022-12-06T14:05:46.509Z,23.70
2022-12-06T14:08:15.355Z,30.60
2022-12-06T14:10:44.156Z,30.10
2022-12-06T14:13:17.277Z,29.90
2022-12-06T14:15:47.259Z,28.40
2022-12-06T14:18:20.072Z,30.70
2022-12-06T14:20:50.000Z,29.50
2022-12-06T14:23:24.709Z,34.50
2022-12-06T14:26:10.585Z,28.90
2022-12-06T14:28:39.406Z,26.00
2022-12-06T14:31:18.939Z,27.60
2022-12-06T14:33:47.734Z,31.00
2022-12-06T14:36:18.539Z,35.20
2022-12-06T14:38:52.247Z,35.60
2022-12-06T14:41:39.980Z,37.00
2022-12-06T14:44:14.946Z,31.80
2022-12-06T14:46:45.110Z,30.70
2022-12-06T14:49:39.786Z,32.70
2022-12-06T14:52:22.320Z,36.80
2022-12-06T14:54:52.181Z,35.30
2022-12-06T14:57:29.075Z,32.00
2022-12-06T15:00:15.132Z,32.60
2022-12-06T15:02:59.263Z,31.20
2022-12-06T15:05:32.242Z,25.20
2022-12-06T15:08:18.108Z,26.20
2022-12-06T15:10:53.600Z,33.80
2022-12-06T15:13:23.054Z,30.60
2022-12-06T15:16:01.222Z,28.60
2022-12-06T15:18:32.847Z,30.00
2022-12-06T15:21:02.399Z,33.50
2022-12-06T15:23:38.792Z,32.60
2022-12-06T15:26:17.050Z,30.50
2022-12-06T15:28:46.033Z,31.50
2022-12-06T15:31:27.205Z,30.70
2022-12-06T15:33:56.397Z,29.20
2022-12-06T15:36:33.221Z,32.60
2022-12-06T15:39:01.961Z,31.00
2022-12-06T15:41:30.751Z,30.20
2022-12-06T15:43:59.472Z,27.70
2022-12-06T15:46:28.751Z,26.60
2022-12-06T15:48:57.628Z,28.90
2022-12-06T15:51:26.984Z,29.90
2022-12-06T15:53:57.313Z,29.30
2022-12-06T15:56:29.015Z,31.60
2022-12-06T15:58:57.798Z,31.00
2022-12-06T16:01:28.244Z,31.30
2022-12-06T16:03:57.946Z,31.70
2022-12-06T16:06:27.963Z,30.70
2022-12-06T16:08:57.083Z,32.50
2022-12-06T16:11:26.590Z,34.10
2022-12-06T16:13:55.545Z,31.90
2022-12-06T16:16:24.366Z,28.10
2022-12-06T16:18:55.173Z,34.40
2022-12-06T16:21:37.384Z,32.40
2022-12-06T16:24:13.887Z,34.30
2022-12-06T16:26:44.984Z,35.30
2022-12-06T16:29:20.852Z,38.70
2022-12-06T16:31:50.985Z,51.80
2022-12-06T16:34:19.907Z,47.30
2022-12-06T16:36:56.057Z,59.60
2022-12-06T16:39:25.332Z,51.20
2022-12-06T16:41:54.077Z,42.30
2022-12-06T16:44:23.143Z,36.60
2022-12-06T16:46:52.306Z,38.80
2022-12-06T16:52:10.082Z,36.50
2022-12-06T16:54:41.679Z,30.50
2022-12-06T16:57:11.221Z,34.90
2022-12-06T16:59:40.614Z,29.30
2022-12-06T17:02:24.514Z,28.70
2022-12-06T17:04:55.051Z,26.60
2022-12-06T17:07:23.932Z,36.00
2022-12-06T17:09:53.080Z,29.20
2022-12-06T17:12:21.868Z,28.60
2022-12-06T17:14:50.961Z,26.00
2022-12-06T17:17:21.450Z,24.90
2022-12-06T17:19:50.673Z,27.60
2022-12-06T17:22:19.712Z,25.10
2022-12-06T17:24:48.581Z,29.10
2022-12-06T17:27:17.557Z,25.80
2022-12-06T17:29:46.330Z,30.60
2022-12-06T17:32:15.071Z,31.90
2022-12-06T17:34:43.907Z,32.80
2022-12-06T17:37:12.681Z,32.30
2022-12-06T17:39:41.506Z,36.90
2022-12-06T17:42:30.589Z,29.70
2022-12-06T17:44:59.795Z,33.20
2022-12-06T17:47:28.928Z,31.60
2022-12-06T17:49:57.828Z,31.70
2022-12-06T17:52:26.627Z,30.30
2022-12-06T17:54:55.420Z,32.50
2022-12-06T17:57:24.105Z,29.40
2022-12-06T17:59:53.150Z,31.90
2022-12-06T18:02:25.998Z,32.70
2022-12-06T18:04:56.262Z,29.30
2022-12-06T18:07:25.649Z,27.70
2022-12-06T18:09:54.526Z,31.60
2022-12-06T18:12:23.305Z,27.60
2022-12-06T18:14:52.379Z,29.50
2022-12-06T18:17:21.239Z,29.30
2022-12-06T18:19:50.084Z,29.00
2022-12-06T18:22:20.284Z,26.80
2022-12-06T18:24:49.099Z,30.10
2022-12-06T18:27:17.903Z,24.00
2022-12-06T18:29:46.738Z,25.80
2022-12-06T18:32:15.558Z,25.80
2022-12-06T18:34:44.352Z,27.10
2022-12-06T18:37:13.152Z,28.40
2022-12-06T18:39:41.831Z,29.40
2022-12-06T18:42:10.867Z,25.40
2022-12-06T18:44:39.619Z,25.00
2022-12-06T18:47:08.411Z,25.50
2022-12-06T18:49:37.125Z,23.10
2022-12-06T18:52:05.860Z,25.30
2022-12-06T18:54:34.625Z,29.00
2022-12-06T18:57:03.340Z,25.80
2022-12-06T18:59:32.139Z,25.40
2022-12-06T19:02:00.902Z,27.00
2022-12-06T19:04:30.006Z,24.80
2022-12-06T19:06:58.828Z,23.30
2022-12-06T19:09:27.518Z,23.90
2022-12-06T19:11:56.284Z,22.80
2022-12-06T19:14:25.182Z,22.50
2022-12-06T19:16:53.977Z,24.60
2022-12-06T19:19:24.081Z,25.30
2022-12-06T19:21:54.330Z,27.90
2022-12-06T19:24:24.249Z,26.00
2022-12-06T19:26:53.853Z,24.40
2022-12-06T19:29:23.493Z,24.00
2022-12-06T19:31:52.252Z,30.20
2022-12-06T19:34:25.320Z,25.40
2022-12-06T19:36:54.663Z,27.50
2022-12-06T19:39:24.121Z,26.50
2022-12-06T19:42:11.799Z,23.80
2022-12-06T19:44:40.693Z,27.20
2022-12-06T19:47:09.760Z,23.30
2022-12-06T19:49:38.763Z,23.30
2022-12-06T19:52:07.444Z,23.70
2022-12-06T19:54:37.335Z,26.90
2022-12-06T19:57:06.159Z,27.00
2022-12-06T19:59:35.935Z,22.50
2022-12-06T20:02:05.665Z,24.20
2022-12-06T20:04:36.294Z,23.00
2022-12-06T20:07:06.671Z,26.40
2022-12-06T20:09:35.768Z,24.20
2022-12-06T20:12:05.476Z,25.10
2022-12-06T20:14:39.488Z,21.70
2022-12-06T20:17:10.032Z,20.00
2022-12-06T20:19:39.648Z,24.50
2022-12-06T20:22:09.146Z,23.10
2022-12-06T20:24:38.020Z,30.20
2022-12-06T20:27:07.080Z,28.70
2022-12-06T20:29:35.959Z,32.40
2022-12-06T20:32:04.812Z,27.40
2022-12-06T20:34:36.609Z,33.30
2022-12-06T20:37:05.875Z,23.60
2022-12-06T20:39:35.910Z,19.40
2022-12-06T20:42:06.274Z,20.00
2022-12-06T20:44:35.700Z,27.80
2022-12-06T20:47:04.585Z,22.40
2022-12-06T20:49:33.516Z,23.20
2022-12-06T20:52:03.620Z,21.40
2022-12-06T20:54:32.436Z,22.90
2022-12-06T20:57:06.276Z,19.70
2022-12-06T20:59:35.623Z,18.20
2022-12-06T21:02:05.773Z,19.90
2022-12-06T21:04:34.679Z,19.20
2022-12-06T21:07:03.366Z,18.50
2022-12-06T21:09:32.062Z,20.70
2022-12-06T21:12:00.852Z,20.40
2022-12-06T21:14:29.661Z,20.40
2022-12-06T21:16:58.324Z,18.10
2022-12-06T21:19:27.017Z,19.30
2022-12-06T21:21:57.893Z,19.20
2022-12-06T21:24:26.674Z,19.30
2022-12-06T21:26:55.462Z,17.60
2022-12-06T21:29:30.536Z,14.50
2022-12-06T21:32:01.523Z,14.60
2022-12-06T21:34:30.576Z,15.70
2022-12-06T21:36:59.288Z,18.00
2022-12-06T21:39:28.114Z,21.80
2022-12-06T21:41:57.407Z,17.00
2022-12-06T21:44:26.132Z,18.40
2022-12-06T21:46:54.999Z,19.10
2022-12-06T21:49:23.766Z,18.90
2022-12-06T21:52:00.208Z,17.30
2022-12-06T21:54:30.873Z,18.60
2022-12-06T21:56:59.644Z,13.20
2022-12-06T21:59:28.410Z,14.70
2022-12-06T22:01:57.266Z,15.80
2022-12-06T22:04:26.105Z,15.30
2022-12-06T22:06:54.814Z,15.30
2022-12-06T22:09:23.534Z,13.90
2022-12-06T22:11:52.379Z,14.90
2022-12-06T22:14:21.114Z,12.60
2022-12-06T22:16:50.632Z,12.60
2022-12-06T22:19:19.375Z,13.00
2022-12-06T22:21:48.278Z,14.40
2022-12-06T22:24:17.124Z,13.10
2022-12-06T22:26:45.828Z,11.00
2022-12-06T22:29:14.756Z,12.10
2022-12-06T22:31:43.588Z,11.50
2022-12-06T22:34:12.585Z,9.70
2022-12-06T22:36:41.610Z,10.10
2022-12-06T22:39:10.385Z,11.30
2022-12-06T22:41:39.074Z,9.90
2022-12-06T22:44:07.784Z,10.30
2022-12-06T22:46:36.795Z,11.10
2022-12-06T22:49:05.983Z,11.30
2022-12-06T22:51:36.192Z,9.60
2022-12-06T22:54:06.275Z,8.20
2022-12-06T22:56:35.144Z,8.70
2022-12-06T22:59:03.897Z,10.00
2022-12-06T23:01:33.692Z,8.40
2022-12-06T23:04:04.318Z,10.00
2022-12-06T23:06:33.764Z,8.70
2022-12-06T23:09:03.479Z,8.00
2022-12-06T23:11:32.814Z,9.90
2022-12-06T23:14:03.113Z,9.70
2022-12-06T23:16:32.404Z,11.20
2022-12-06T23:19:01.951Z,9.70
2022-12-06T23:21:31.781Z,9.40
2022-12-06T23:24:01.758Z,10.20
2022-12-06T23:26:31.963Z,8.00
2022-12-06T23:29:00.799Z,10.10
2022-12-06T23:31:33.309Z,10.60
2022-12-06T23:34:04.532Z,10.90
2022-12-06T23:36:34.406Z,12.40
2022-12-06T23:39:04.050Z,8.60
2022-12-06T23:41:33.285Z,12.70
2022-12-06T23:44:02.648Z,15.70
2022-12-06T23:46:32.565Z,11.90
2022-12-06T23:49:01.935Z,10.60
2022-12-06T23:51:35.102Z,15.80
2022-12-06T23:54:04.872Z,15.20
2022-12-06T23:56:34.825Z,16.20
2022-12-06T23:59:04.551Z,15.90
